Time;durP1;ratioP1;P1;durP2;ratioP2;P2;SDS_P1;SDS_P2;PMS_P1;PMS_P2;Temp;Humidity;BMP_temperature;BMP_pressure;BME280_temperature;BME280_humidity;BME280_pressure;Samples;Min_cycle;Max_cycle;Signal;HPM_P1;HPM_P2
2023/05/25 00:02:18;;;;;;;;;;;;;;;11.84;100.00;99604.03;5051257;28;856;-63
2023/05/25 00:04:47;;;;;;;;;;;;;;;11.89;100.00;99608.38;5051333;28;879;-63
2023/05/25 00:07:15;;;;;;;;;;;;;;;11.81;100.00;99610.41;5051146;28;836;-63
2023/05/25 00:09:43;;;;;;;;;;;;;;;11.67;100.00;99597.56;5051240;28;1890;-63
2023/05/25 00:12:10;;;;;;;;;;;;;;;11.57;100.00;99598.47;5050813;28;1251;-63
2023/05/25 00:14:36;;;;;;;;;;;;;;;11.50;100.00;99599.34;5051116;28;835;-62
2023/05/25 00:17:04;;;;;;;;;;;;;;;11.50;100.00;99604.88;5051096;28;856;-62
2023/05/25 00:19:31;;;;;;;;;;;;;;;11.48;100.00;99596.19;5051091;28;824;-62
2023/05/25 00:22:01;;;;;;;;;;;;;;;11.42;100.00;99606.91;5051234;28;863;-63
2023/05/25 00:24:30;;;;;;;;;;;;;;;11.42;100.00;99614.44;5051023;28;886;-63
2023/05/25 00:26:57;;;;;;;;;;;;;;;11.43;100.00;99611.25;5054682;28;827;-63
2023/05/25 00:29:24;;;;;;;;;;;;;;;11.42;100.00;99597.84;5054849;28;1918;-62
2023/05/25 00:31:52;;;;;;;;;;;;;;;11.41;100.00;99599.84;5054952;28;828;-63
2023/05/25 00:34:18;;;;;;;;;;;;;;;11.38;100.00;99602.63;5054845;28;871;-63
2023/05/25 00:36:48;;;;;;;;;;;;;;;11.36;100.00;99599.50;5054786;28;899;-62
2023/05/25 00:39:17;;;;;;;;;;;;;;;11.38;100.00;99602.63;5054792;28;848;-62
2023/05/25 00:41:44;;;;;;;;;;;;;;;11.35;100.00;99608.97;5054638;28;832;-62
2023/05/25 00:44:13;;;;;;;;;;;;;;;11.32;100.00;99601.50;5054671;28;879;-62
2023/05/25 00:46:46;;;;;;;;;;;;;;;11.34;100.00;99601.88;5054587;28;832;-62
2023/05/25 00:49:17;;;;;;;;;;;;;;;11.40;100.00;99603.00;5054427;28;1894;-62
2023/05/25 00:51:45;;;;;;;;;;;;;;;11.41;100.00;99605.38;5054480;28;875;-62
2023/05/25 00:54:20;;;;;;;;;;;;;;;11.43;100.00;99605.72;5054431;28;856;-62
2023/05/25 00:56:50;;;;;;;;;;;;;;;11.45;100.00;99602.53;5036374;28;1188;-62
2023/05/25 00:59:19;;;;;;;;;;;;;;;11.42;100.00;99606.16;5055061;28;835;-62
2023/05/25 01:01:47;;;;;;;;;;;;;;;11.42;100.00;99608.91;5054465;28;828;-62
2023/05/25 01:04:15;;;;;;;;;;;;;;;11.37;100.00;99603.81;5054247;28;796;-62
2023/05/25 01:06:42;;;;;;;;;;;;;;;11.26;100.00;99605.91;5054260;28;866;-62
2023/05/25 01:09:10;;;;;;;;;;;;;;;11.17;100.00;99612.72;5054067;28;1913;-62
2023/05/25 01:11:38;;;;;;;;;;;;;;;11.19;100.00;99607.56;5053969;28;1449;-62
2023/05/25 01:14:05;;;;;;;;;;;;;;;11.36;100.00;99599.50;5054169;28;839;-63
2023/05/25 01:16:32;;;;;;;;;;;;;;;11.45;100.00;99597.78;5054068;28;957;-63
2023/05/25 01:18:59;;;;;;;;;;;;;;;11.37;100.00;99601.03;5054246;28;887;-63
2023/05/25 01:21:28;;;;;;;;;;;;;;;11.29;100.00;99600.34;5054263;28;847;-62
2023/05/25 01:24:16;;;;;;;;;;;;;;;11.27;100.00;99602.75;5053903;28;940;-63
2023/05/25 01:26:45;;;;;;;;;;;;;;;11.24;100.00;99595.25;5053760;28;871;-62
2023/05/25 01:29:12;;;;;;;;;;;;;;;11.26;100.00;99603.16;5053750;28;1977;-62
2023/05/25 01:31:39;;;;;;;;;;;;;;;11.23;100.00;99602.00;5053731;28;871;-62
2023/05/25 01:34:07;;;;;;;;;;;;;;;11.18;100.00;99610.72;5053692;28;934;-63
2023/05/25 01:36:33;;;;;;;;;;;;;;;11.13;100.00;99605.66;5052831;28;875;-62
2023/05/25 01:39:00;;;;;;;;;;;;;;;11.06;100.00;99591.91;5053312;28;887;-63
2023/05/25 01:41:27;;;;;;;;;;;;;;;11.01;100.00;99593.16;5035703;28;1173;-62
2023/05/25 01:43:53;;;;;;;;;;;;;;;11.02;100.00;99603.00;5053689;28;812;-62
2023/05/25 01:46:31;;;;;;;;;;;;;;;11.06;100.00;99595.47;5053398;28;926;-62
2023/05/25 01:48:57;;;;;;;;;;;;;;;11.17;100.00;99607.19;5053632;28;1985;-62
2023/05/25 01:51:38;;;;;;;;;;;;;;;11.14;100.00;99591.44;5053392;28;918;-62
2023/05/25 01:54:12;;;;;;;;;;;;;;;11.07;100.00;99599.78;5053112;28;927;-62
2023/05/25 01:56:41;;;;;;;;;;;;;;;11.06;100.00;99600.22;5053366;28;835;-62
2023/05/25 01:59:12;;;;;;;;;;;;;;;10.99;100.00;99601.84;5053468;28;816;-62
2023/05/25 02:01:41;;;;;;;;;;;;;;;10.90;100.00;99607.06;5053269;28;871;-62
2023/05/25 02:04:07;;;;;;;;;;;;;;;10.80;100.00;99600.44;5053163;28;878;-62
2023/05/25 02:06:35;;;;;;;;;;;;;;;10.77;100.00;99604.00;5053201;28;907;-62
2023/05/25 02:09:02;;;;;;;;;;;;;;;10.77;100.00;99606.78;5052929;28;1953;-62
2023/05/25 02:11:29;;;;;;;;;;;;;;;10.80;100.00;99605.19;5052856;28;1238;-63
2023/05/25 02:13:55;;;;;;;;;;;;;;;10.84;100.00;99611.47;5053014;28;961;-62
2023/05/25 02:16:22;;;;;;;;;;;;;;;10.85;100.00;99617.78;5052983;28;887;-62
2023/05/25 02:18:49;;;;;;;;;;;;;;;10.93;100.00;99614.56;5052877;28;844;-62
2023/05/25 02:21:16;;;;;;;;;;;;;;;11.01;100.00;99615.28;5053138;28;871;-63
2023/05/25 02:23:42;;;;;;;;;;;;;;;11.01;100.00;99606.97;5052712;28;840;-63
2023/05/25 02:26:09;;;;;;;;;;;;;;;11.06;100.00;99622.34;5052710;28;878;-62
2023/05/25 02:28:36;;;;;;;;;;;;;;;11.08;100.00;99617.19;5034804;28;1910;-62
2023/05/25 02:31:03;;;;;;;;;;;;;;;11.04;100.00;99618.00;5052650;28;820;-62
2023/05/25 02:33:30;;;;;;;;;;;;;;;11.02;100.00;99620.38;5052597;28;907;-62
2023/05/25 02:35:56;;;;;;;;;;;;;;;11.02;100.00;99622.38;5052588;28;847;-62
2023/05/25 02:38:22;;;;;;;;;;;;;;;11.01;100.00;99626.34;5052507;28;835;-62
2023/05/25 02:40:49;;;;;;;;;;;;;;;11.03;100.00;99621.97;5052579;28;900;-62
2023/05/25 02:43:16;;;;;;;;;;;;;;;11.07;100.00;99621.91;5052428;28;856;-63
2023/05/25 02:45:43;;;;;;;;;;;;;;;11.10;100.00;99618.34;5052791;28;931;-62
2023/05/25 02:48:10;;;;;;;;;;;;;;;11.24;100.00;99625.69;5052041;28;1886;-62
2023/05/25 02:50:37;;;;;;;;;;;;;;;11.43;100.00;99618.78;5052354;28;844;-62
2023/05/25 02:53:04;;;;;;;;;;;;;;;11.53;100.00;99625.41;5052405;28;926;-62
2023/05/25 02:55:31;;;;;;;;;;;;;;;11.58;100.00;99616.63;5052297;28;871;-62
2023/05/25 02:57:58;;;;;;;;;;;;;;;11.61;100.00;99621.34;5052353;28;899;-62
2023/05/25 03:00:25;;;;;;;;;;;;;;;11.68;100.00;99626.00;5052286;28;893;-61
2023/05/25 03:02:52;;;;;;;;;;;;;;;11.70;100.00;99621.63;5052284;28;880;-63
2023/05/25 03:05:18;;;;;;;;;;;;;;;11.72;100.00;99621.22;5052225;28;941;-63
2023/05/25 03:07:46;;;;;;;;;;;;;;;11.74;100.00;99616.06;5052325;28;815;-63
2023/05/25 03:10:13;;;;;;;;;;;;;;;11.74;100.00;99629.91;5052123;28;1954;-62
2023/05/25 03:12:40;;;;;;;;;;;;;;;11.72;100.00;99630.28;5051818;28;1272;-62
2023/05/25 03:15:08;;;;;;;;;;;;;;;11.71;100.00;99631.47;5052074;28;875;-62
2023/05/25 03:17:34;;;;;;;;;;;;;;;11.72;100.00;99633.06;5051919;28;898;-62
2023/05/25 03:20:01;;;;;;;;;;;;;;;11.73;100.00;99634.63;5051916;28;823;-62
2023/05/25 03:22:28;;;;;;;;;;;;;;;11.75;100.00;99628.69;5052063;28;843;-62
2023/05/25 03:24:54;;;;;;;;;;;;;;;11.81;100.00;99636.09;5033941;28;1268;-63
2023/05/25 03:27:21;;;;;;;;;;;;;;;11.88;100.00;99637.22;5051995;28;820;-62
2023/05/25 03:29:48;;;;;;;;;;;;;;;11.96;100.00;99638.72;5051822;28;1939;-62
2023/05/25 03:32:15;;;;;;;;;;;;;;;11.99;100.00;99643.44;5051944;28;835;-62
2023/05/25 03:34:43;;;;;;;;;;;;;;;12.03;100.00;99646.94;5051718;28;874;-62
2023/05/25 03:37:10;;;;;;;;;;;;;;;12.08;100.00;99649.25;5051767;28;828;-62
2023/05/25 03:39:37;;;;;;;;;;;;;;;12.14;100.00;99641.25;5051643;28;899;-62
2023/05/25 03:42:05;;;;;;;;;;;;;;;12.21;100.00;99641.94;5051650;28;836;-63
2023/05/25 03:44:32;;;;;;;;;;;;;;;12.28;100.00;99638.28;5051469;28;813;-63
2023/05/25 03:46:59;;;;;;;;;;;;;;;12.40;100.00;99645.25;5033693;28;891;-62
2023/05/25 03:49:26;;;;;;;;;;;;;;;12.57;100.00;99646.97;5051517;28;1886;-62
2023/05/25 03:51:53;;;;;;;;;;;;;;;12.68;100.00;99640.47;5033357;28;1340;-62
2023/05/25 03:54:20;;;;;;;;;;;;;;;12.76;100.00;99645.47;5051609;28;895;-62
2023/05/25 03:56:47;;;;;;;;;;;;;;;12.88;100.00;99647.63;5051384;28;875;-62
2023/05/25 03:59:14;;;;;;;;;;;;;;;12.97;100.00;99643.53;5051426;28;852;-62
2023/05/25 04:01:41;;;;;;;;;;;;;;;13.04;100.00;99646.22;5054423;28;808;-63
2023/05/25 04:04:07;;;;;;;;;;;;;;;13.11;100.00;99650.84;5055454;28;820;-63
2023/05/25 04:06:36;;;;;;;;;;;;;;;13.18;100.00;99647.94;5055604;28;883;-62
2023/05/25 04:09:03;;;;;;;;;;;;;;;13.28;100.00;99655.28;5055146;28;1886;-63
2023/05/25 04:11:30;;;;;;;;;;;;;;;13.39;100.00;99653.13;5055189;28;1309;-62
2023/05/25 04:13:58;;;;;;;;;;;;;;;13.55;100.00;99655.22;5055279;28;820;-62
2023/05/25 04:16:25;;;;;;;;;;;;;;;13.72;100.00;99650.50;5055082;28;925;-62
2023/05/25 04:18:52;;;;;;;;;;;;;;;13.89;100.00;99654.91;5055212;28;840;-62
2023/05/25 04:21:19;;;;;;;;;;;;;;;14.04;100.00;99652.63;5055103;28;859;-62
2023/05/25 04:23:46;;;;;;;;;;;;;;;14.16;100.00;99650.38;5054998;28;1017;-63
2023/05/25 04:26:14;;;;;;;;;;;;;;;14.27;100.00;99653.69;5054995;28;848;-61
2023/05/25 04:28:41;;;;;;;;;;;;;;;14.42;100.00;99649.41;5054960;28;1914;-62
2023/05/25 04:31:08;;;;;;;;;;;;;;;14.59;100.00;99657.78;5054846;28;823;-62
2023/05/25 04:33:37;;;;;;;;;;;;;;;14.79;100.00;99657.72;5054957;28;847;-62
2023/05/25 04:36:04;;;;;;;;;;;;;;;14.95;100.00;99665.25;5054746;28;906;-62
2023/05/25 04:38:32;;;;;;;;;;;;;;;15.05;100.00;99664.22;5054777;28;895;-62
2023/05/25 04:41:00;;;;;;;;;;;;;;;15.23;100.00;99670.09;5054939;28;926;-63
2023/05/25 04:43:28;;;;;;;;;;;;;;;15.38;100.00;99672.50;5054938;28;879;-63
2023/05/25 04:45:56;;;;;;;;;;;;;;;15.51;100.00;99668.56;5054734;28;922;-62
2023/05/25 04:48:24;;;;;;;;;;;;;;;15.68;100.00;99671.28;5054539;28;1890;-61
2023/05/25 04:50:51;;;;;;;;;;;;;;;15.80;100.00;99675.38;5054521;28;857;-63
2023/05/25 04:53:19;;;;;;;;;;;;;;;15.84;100.00;99670.47;5054579;28;855;-62
2023/05/25 04:55:45;;;;;;;;;;;;;;;15.91;100.00;99676.63;5054476;28;918;-62
2023/05/25 04:58:12;;;;;;;;;;;;;;;16.12;100.00;99675.22;5054681;28;926;-62
2023/05/25 05:00:39;;;;;;;;;;;;;;;16.50;100.00;99673.69;5054666;28;859;-62
2023/05/25 05:03:05;;;;;;;;;;;;;;;16.74;100.00;99674.91;5054365;28;898;-62
2023/05/25 05:05:34;;;;;;;;;;;;;;;17.00;100.00;99672.09;5054315;28;824;-63
2023/05/25 05:08:02;;;;;;;;;;;;;;;17.25;100.00;99676.06;5054176;28;903;-62
2023/05/25 05:10:29;;;;;;;;;;;;;;;17.53;100.00;99679.88;5054356;28;1950;-62
2023/05/25 05:12:56;;;;;;;;;;;;;;;17.63;100.00;99678.72;5053725;28;1267;-63
2023/05/25 05:15:24;;;;;;;;;;;;;;;17.64;100.00;99677.47;5054108;28;824;-63
2023/05/25 05:17:51;;;;;;;;;;;;;;;17.72;100.00;99686.41;5054013;28;890;-63
2023/05/25 05:20:19;;;;;;;;;;;;;;;17.90;100.00;99696.94;5053947;28;867;-62
2023/05/25 05:22:46;;;;;;;;;;;;;;;18.11;100.00;99687.75;5053994;28;847;-62
2023/05/25 05:25:13;;;;;;;;;;;;;;;18.29;100.00;99691.94;5054135;28;911;-63
2023/05/25 05:27:40;;;;;;;;;;;;;;;18.42;100.00;99695.41;5053905;28;812;-62
2023/05/25 05:30:07;;;;;;;;;;;;;;;18.55;100.00;99696.06;5053715;28;1910;-62
2023/05/25 05:32:34;;;;;;;;;;;;;;;18.75;100.00;99697.69;5053749;28;816;-63
2023/05/25 05:35:01;;;;;;;;;;;;;;;19.16;100.00;99696.44;5053896;28;843;-62
2023/05/25 05:37:28;;;;;;;;;;;;;;;19.65;100.00;99694.78;5053911;28;911;-63
2023/05/25 05:39:55;;;;;;;;;;;;;;;20.14;100.00;99695.81;5053886;28;900;-62
2023/05/25 05:42:21;;;;;;;;;;;;;;;20.47;100.00;99707.09;5035661;28;1198;-63
2023/05/25 05:44:49;;;;;;;;;;;;;;;20.73;100.00;99698.31;5053549;28;855;-63
2023/05/25 05:47:16;;;;;;;;;;;;;;;21.01;100.00;99702.50;5053430;28;832;-63
2023/05/25 05:49:42;;;;;;;;;;;;;;;21.52;100.00;99697.97;5053639;28;1951;-62
2023/05/25 05:52:09;;;;;;;;;;;;;;;21.80;100.00;99701.31;5053324;28;836;-62
2023/05/25 05:54:36;;;;;;;;;;;;;;;22.08;100.00;99700.28;5053374;28;859;-63
2023/05/25 05:57:05;;;;;;;;;;;;;;;22.60;100.00;99709.16;5053326;28;879;-63
2023/05/25 05:59:31;;;;;;;;;;;;;;;22.92;100.00;99696.03;5053315;28;848;-62
2023/05/25 06:01:58;;;;;;;;;;;;;;;23.26;100.00;99709.84;5053449;28;899;-63
2023/05/25 06:04:27;;;;;;;;;;;;;;;23.53;100.00;99709.41;5053126;28;829;-63
2023/05/25 06:06:54;;;;;;;;;;;;;;;24.04;100.00;99707.16;5053109;28;816;-63
2023/05/25 06:09:25;;;;;;;;;;;;;;;24.30;100.00;99707.13;5053029;28;1962;-63
2023/05/25 06:11:52;;;;;;;;;;;;;;;24.78;100.00;99705.75;5052976;28;1364;-64
2023/05/25 06:14:19;;;;;;;;;;;;;;;25.45;100.00;99703.31;5053113;28;863;-63
2023/05/25 06:16:46;;;;;;;;;;;;;;;26.04;100.00;99698.09;5053159;28;832;-63
2023/05/25 06:19:13;;;;;;;;;;;;;;;26.95;100.00;99693.94;5053115;28;872;-63
2023/05/25 06:21:40;;;;;;;;;;;;;;;27.90;97.08;99703.38;5052941;28;812;-63
2023/05/25 06:24:07;;;;;;;;;;;;;;;28.57;92.99;99702.13;5052329;28;828;-63
2023/05/25 06:26:34;;;;;;;;;;;;;;;29.12;89.41;99707.78;5052952;28;816;-64
2023/05/25 06:29:01;;;;;;;;;;;;;;;29.65;87.21;99699.63;5052922;28;1894;-63
2023/05/25 06:31:28;;;;;;;;;;;;;;;30.25;84.58;99700.59;5052967;28;816;-65
2023/05/25 06:33:55;;;;;;;;;;;;;;;30.67;76.29;99701.72;5052744;28;860;-64
2023/05/25 06:36:22;;;;;;;;;;;;;;;30.68;73.45;99702.47;5052788;28;884;-64
2023/05/25 06:38:49;;;;;;;;;;;;;;;31.07;67.13;99701.03;5052910;28;808;-64
2023/05/25 06:41:17;;;;;;;;;;;;;;;31.11;66.15;99704.28;5052630;28;812;-64
2023/05/25 06:43:45;;;;;;;;;;;;;;;31.45;63.41;99701.56;5052472;28;796;-64
2023/05/25 06:46:16;;;;;;;;;;;;;;;31.69;60.95;99705.47;5052404;28;926;-65
2023/05/25 06:48:43;;;;;;;;;;;;;;;32.07;57.42;99699.41;5052316;28;1886;-65
2023/05/25 06:51:10;;;;;;;;;;;;;;;32.48;55.99;99700.78;5052167;28;855;-64
2023/05/25 06:53:40;;;;;;;;;;;;;;;32.98;53.73;99707.28;5052339;28;882;-65
2023/05/25 06:56:07;;;;;;;;;;;;;;;33.28;48.77;99706.69;5052172;28;830;-65
2023/05/25 06:58:35;;;;;;;;;;;;;;;32.81;41.15;99696.28;5052124;28;918;-64
2023/05/25 07:01:02;;;;;;;;;;;;;;;31.91;39.55;99689.91;5052097;28;855;-65
2023/05/25 07:03:29;;;;;;;;;;;;;;;32.00;40.06;99689.44;5052089;28;854;-64
2023/05/25 07:05:56;;;;;;;;;;;;;;;31.33;42.15;99698.13;5052035;28;855;-64
2023/05/25 07:08:23;;;;;;;;;;;;;;;31.18;43.53;99706.50;5051869;28;1951;-64
2023/05/25 07:10:49;;;;;;;;;;;;;;;31.78;43.35;99707.84;5052340;28;912;-64
2023/05/25 07:13:16;;;;;;;;;;;;;;;32.84;41.08;99705.81;5051710;28;1343;-64
2023/05/25 07:15:44;;;;;;;;;;;;;;;33.29;39.50;99711.13;5051923;28;836;-65
2023/05/25 07:18:11;;;;;;;;;;;;;;;32.37;40.79;99709.63;5051765;28;859;-65
2023/05/25 07:20:40;;;;;;;;;;;;;;;32.43;38.49;99707.38;5051694;28;804;-65
2023/05/25 07:23:08;;;;;;;;;;;;;;;29.56;40.41;99705.72;5051957;28;823;-64
2023/05/25 07:25:38;;;;;;;;;;;;;;;29.00;42.51;99715.66;5051951;28;895;-64
2023/05/25 07:28:05;;;;;;;;;;;;;;;28.52;43.00;99707.88;5051657;28;796;-64
2023/05/25 07:30:32;;;;;;;;;;;;;;;26.69;47.66;99716.91;5051529;28;1992;-65
2023/05/25 07:32:59;;;;;;;;;;;;;;;27.05;50.24;99717.09;5051586;28;903;-65
2023/05/25 07:35:26;;;;;;;;;;;;;;;27.43;51.09;99706.94;5051486;28;836;-64
2023/05/25 07:37:59;;;;;;;;;;;;;;;27.29;51.45;99717.34;5051473;28;938;-64
2023/05/25 07:40:27;;;;;;;;;;;;;;;27.76;52.14;99718.66;5033587;28;1220;-65
2023/05/25 07:42:54;;;;;;;;;;;;;;;30.12;45.68;99712.72;5033512;28;1339;-66
2023/05/25 07:45:20;;;;;;;;;;;;;;;30.90;42.09;99715.63;5051471;28;899;-64
2023/05/25 07:47:47;;;;;;;;;;;;;;;31.16;39.42;99714.84;5051502;28;840;-65
2023/05/25 07:50:14;;;;;;;;;;;;;;;29.59;41.98;99718.88;5051671;28;1886;-64
2023/05/25 07:52:41;;;;;;;;;;;;;;;28.13;44.79;99712.53;5051353;28;864;-64
2023/05/25 07:55:08;;;;;;;;;;;;;;;27.15;47.33;99718.38;5051388;28;824;-64
2023/05/25 07:57:35;;;;;;;;;;;;;;;27.00;50.67;99717.91;5051293;28;1039;-64
2023/05/25 08:00:09;;;;;;;;;;;;;;;26.56;52.63;99708.94;5051278;28;868;-64
2023/05/25 08:02:36;;;;;;;;;;;;;;;26.24;54.53;99712.03;5051246;28;848;-64
2023/05/25 08:05:04;;;;;;;;;;;;;;;25.95;54.90;99709.66;5051256;28;879;-63
2023/05/25 08:07:34;;;;;;;;;;;;;;;25.53;56.82;99706.41;5051448;28;887;-64
2023/05/25 08:10:02;;;;;;;;;;;;;;;25.27;59.00;99715.06;5051326;28;1885;-63
2023/05/25 08:12:28;;;;;;;;;;;;;;;24.82;62.14;99715.53;5050909;28;1309;-64
2023/05/25 08:14:56;;;;;;;;;;;;;;;24.81;63.14;99704.72;5051173;28;824;-64
2023/05/25 08:17:22;;;;;;;;;;;;;;;24.82;63.02;99707.06;5051013;28;840;-65
2023/05/25 08:19:50;;;;;;;;;;;;;;;25.89;58.45;99706.03;5051089;28;875;-63
2023/05/25 08:22:17;;;;;;;;;;;;;;;25.88;57.38;99699.56;5051053;28;824;-65
2023/05/25 08:24:44;;;;;;;;;;;;;;;25.15;58.46;99702.09;5051091;28;927;-64
2023/05/25 08:27:11;;;;;;;;;;;;;;;24.42;60.84;99700.31;5050933;28;911;-64
2023/05/25 08:29:39;;;;;;;;;;;;;;;23.90;62.94;99706.00;5050955;28;1910;-64
2023/05/25 08:32:05;;;;;;;;;;;;;;;23.72;64.70;99701.41;5050977;28;836;-64
2023/05/25 08:34:31;;;;;;;;;;;;;;;23.71;65.97;99708.34;5051028;28;839;-63
2023/05/25 08:36:58;;;;;;;;;;;;;;;23.47;67.00;99707.78;5050995;28;894;-64
2023/05/25 08:39:25;;;;;;;;;;;;;;;22.68;73.35;99706.69;5050937;28;800;-64
2023/05/25 08:41:52;;;;;;;;;;;;;;;22.01;83.71;99704.28;5050878;28;816;-64
2023/05/25 08:44:20;;;;;;;;;;;;;;;21.59;90.52;99705.25;5050879;28;864;-63
2023/05/25 08:46:48;;;;;;;;;;;;;;;21.31;96.63;99699.81;5034619;28;967;-64
2023/05/25 08:49:15;;;;;;;;;;;;;;;21.26;99.70;99702.53;5054522;28;1943;-64
2023/05/25 08:51:46;;;;;;;;;;;;;;;21.44;100.00;99701.66;5054589;28;864;-63
2023/05/25 08:54:14;;;;;;;;;;;;;;;21.72;99.49;99693.75;5054443;28;872;-64
2023/05/25 08:56:48;;;;;;;;;;;;;;;22.16;94.08;99690.97;5055116;28;804;-64
2023/05/25 08:59:21;;;;;;;;;;;;;;;22.61;90.70;99686.09;5054442;28;844;-64
2023/05/25 09:01:51;;;;;;;;;;;;;;;23.17;87.40;99679.72;5054423;28;843;-64
2023/05/25 09:04:19;;;;;;;;;;;;;;;24.33;77.07;99679.97;5054334;28;922;-63
2023/05/25 09:06:47;;;;;;;;;;;;;;;26.36;66.86;99683.69;5036366;28;1303;-63
2023/05/25 09:09:14;;;;;;;;;;;;;;;27.39;57.63;99678.06;5054255;28;1944;-63
2023/05/25 09:11:42;;;;;;;;;;;;;;;28.03;56.61;99680.06;5054085;28;1360;-64
2023/05/25 09:14:10;;;;;;;;;;;;;;;28.26;53.57;99672.91;5054178;28;907;-64
2023/05/25 09:16:37;;;;;;;;;;;;;;;29.24;50.53;99677.91;5054276;28;840;-62
2023/05/25 09:19:04;;;;;;;;;;;;;;;30.63;47.68;99675.59;5054056;28;828;-64
2023/05/25 09:21:31;;;;;;;;;;;;;;;31.00;44.74;99673.88;5036054;28;1167;-64
2023/05/25 09:23:58;;;;;;;;;;;;;;;29.98;46.97;99674.06;5053838;28;963;-63
2023/05/25 09:26:25;;;;;;;;;;;;;;;28.59;48.73;99687.38;5053870;28;844;-62
2023/05/25 09:28:52;;;;;;;;;;;;;;;27.54;50.88;99679.81;5053868;28;1977;-64
2023/05/25 09:31:22;;;;;;;;;;;;;;;27.17;53.44;99698.78;5053715;28;884;-64
2023/05/25 09:33:48;;;;;;;;;;;;;;;26.97;54.36;99691.38;5054049;28;831;-64
2023/05/25 09:36:16;;;;;;;;;;;;;;;26.51;55.81;99691.94;5053964;28;903;-65
2023/05/25 09:38:44;;;;;;;;;;;;;;;26.76;56.72;99687.28;5053854;28;869;-62
2023/05/25 10:12:50;;;;;;;;;;;;;;;28.19;48.37;99664.97;5073232;28;637;-64
2023/05/25 10:15:19;;;;;;;;;;;;;;;27.82;50.36;99660.53;5072996;28;879;-62
2023/05/25 10:17:51;;;;;;;;;;;;;;;27.82;50.50;99659.78;5072930;28;858;-63
2023/05/25 10:20:18;;;;;;;;;;;;;;;27.89;50.44;99668.53;5072991;28;882;-64
2023/05/25 10:23:05;;;;;;;;;;;;;;;27.98;50.89;99655.31;5072919;28;973;-63
2023/05/25 10:25:41;;;;;;;;;;;;;;;27.69;52.34;99661.13;5072803;28;1292;-62
2023/05/25 10:28:13;;;;;;;;;;;;;;;27.07;53.91;99663.47;5072950;28;875;-63
2023/05/25 10:30:41;;;;;;;;;;;;;;;26.48;54.84;99654.81;5072611;28;1930;-62
2023/05/25 10:33:11;;;;;;;;;;;;;;;26.01;56.44;99673.59;5072529;28;1157;-62
2023/05/25 10:35:38;;;;;;;;;;;;;;;25.16;61.23;99686.69;5071684;28;1155;-63
2023/05/25 10:38:07;;;;;;;;;;;;;;;23.20;83.28;99684.41;5071470;28;1163;-59
2023/05/25 10:40:36;;;;;;;;;;;;;;;20.32;100.00;99703.41;5072659;28;900;-59
2023/05/25 10:43:04;;;;;;;;;;;;;;;18.64;100.00;99703.72;5072438;28;954;-59
2023/05/25 10:45:30;;;;;;;;;;;;;;;17.84;100.00;99696.00;5072400;28;941;-59
2023/05/25 10:47:57;;;;;;;;;;;;;;;17.86;100.00;99701.88;5072319;28;906;-59
2023/05/25 10:50:25;;;;;;;;;;;;;;;18.03;100.00;99694.88;5072295;28;1922;-59
2023/05/25 10:53:04;;;;;;;;;;;;;;;18.51;100.00;99694.66;5072239;28;867;-59
2023/05/25 10:55:44;;;;;;;;;;;;;;;18.95;100.00;99695.31;5072168;28;1029;-59
2023/05/25 10:58:12;;;;;;;;;;;;;;;19.20;100.00;99701.88;5072243;28;819;-59
2023/05/25 11:00:39;;;;;;;;;;;;;;;19.57;100.00;99699.91;5072100;28;962;-59
2023/05/25 11:03:06;;;;;;;;;;;;;;;20.02;100.00;99703.19;5071943;28;872;-58
2023/05/25 11:05:34;;;;;;;;;;;;;;;20.48;100.00;99708.66;5072079;28;970;-59
2023/05/25 11:08:03;;;;;;;;;;;;;;;21.14;100.00;99704.31;5071931;28;927;-59
2023/05/25 11:10:49;;;;;;;;;;;;;;;22.45;100.00;99705.53;5071348;28;1894;-60
2023/05/25 11:13:32;;;;;;;;;;;;;;;23.75;100.00;99714.56;5071939;28;827;-60
2023/05/25 11:16:18;;;;;;;;;;;;;;;25.20;100.00;99719.13;5071749;28;864;-61
2023/05/25 11:18:48;;;;;;;;;;;;;;;26.32;100.00;99715.09;5071852;28;1026;-61
2023/05/25 11:21:17;;;;;;;;;;;;;;;26.31;100.00;99715.59;5071853;28;815;-61
2023/05/25 11:23:57;;;;;;;;;;;;;;;26.87;100.00;99704.28;5071847;28;894;-61
2023/05/25 11:26:27;;;;;;;;;;;;;;;27.07;100.00;99718.13;5072038;28;811;-59
2023/05/25 11:28:54;;;;;;;;;;;;;;;26.20;100.00;99710.69;5071634;28;1918;-61
2023/05/25 11:31:32;;;;;;;;;;;;;;;25.44;100.00;99718.72;5071943;28;847;-61
2023/05/25 11:34:00;;;;;;;;;;;;;;;25.15;100.00;99722.66;5071614;28;807;-61
2023/05/25 11:36:30;;;;;;;;;;;;;;;25.06;100.00;99722.88;5071663;28;843;-62
2023/05/25 11:38:56;;;;;;;;;;;;;;;26.01;100.00;99713.25;5071390;28;954;-62
2023/05/25 11:41:23;;;;;;;;;;;;;;;26.79;100.00;99715.34;5071506;28;812;-62
2023/05/25 11:43:50;;;;;;;;;;;;;;;25.95;100.00;99706.84;5071494;28;823;-63
2023/05/25 11:46:20;;;;;;;;;;;;;;;25.24;100.00;99707.56;5071507;28;843;-62
2023/05/25 11:48:54;;;;;;;;;;;;;;;25.05;100.00;99718.53;5071420;28;1898;-62
2023/05/25 11:51:22;;;;;;;;;;;;;;;25.05;100.00;99710.03;5071774;28;866;-61
2023/05/25 11:53:48;;;;;;;;;;;;;;;25.26;100.00;99705.81;5071455;28;875;-61
2023/05/25 11:56:16;;;;;;;;;;;;;;;25.62;100.00;99694.09;5071354;28;871;-62
2023/05/25 11:58:48;;;;;;;;;;;;;;;25.89;100.00;99700.38;5071358;28;954;-62
2023/05/25 12:01:17;;;;;;;;;;;;;;;26.13;100.00;99691.41;5071392;28;933;-62
2023/05/25 12:03:45;;;;;;;;;;;;;;;26.44;100.00;99702.47;5070097;28;933;-62
2023/05/25 12:06:32;;;;;;;;;;;;;;;27.06;100.00;99702.41;5071379;28;854;-62
2023/05/25 12:09:09;;;;;;;;;;;;;;;26.81;100.00;99698.59;5071043;28;1897;-62
2023/05/25 12:11:37;;;;;;;;;;;;;;;26.20;100.00;99705.84;5071014;28;1229;-63
2023/05/25 12:14:05;;;;;;;;;;;;;;;25.63;100.00;99704.91;5071326;28;851;-61
2023/05/25 12:16:33;;;;;;;;;;;;;;;25.51;100.00;99699.72;5071155;28;943;-61
2023/05/25 12:19:01;;;;;;;;;;;;;;;25.38;100.00;99695.28;5071207;28;881;-60
2023/05/25 12:21:28;;;;;;;;;;;;;;;25.12;100.00;99697.47;5072283;28;819;-61
2023/05/25 12:23:55;;;;;;;;;;;;;;;25.04;100.00;99685.84;5075212;28;803;-60
2023/05/25 12:26:22;;;;;;;;;;;;;;;25.26;100.00;99680.34;5075106;28;889;-60
2023/05/25 12:29:05;;;;;;;;;;;;;;;25.55;100.00;99674.78;5075037;28;1977;-60
2023/05/25 12:31:35;;;;;;;;;;;;;;;25.72;100.00;99672.00;5075078;28;839;-60
2023/05/25 12:34:09;;;;;;;;;;;;;;;25.93;100.00;99669.75;5075503;28;827;-60
2023/05/25 12:36:37;;;;;;;;;;;;;;;26.28;100.00;99664.34;5074917;28;962;-60
2023/05/25 12:39:04;;;;;;;;;;;;;;;26.67;100.00;99674.13;5074832;28;823;-60
2023/05/25 12:41:40;;;;;;;;;;;;;;;26.91;100.00;99676.44;5074773;28;912;-60
2023/05/25 12:44:15;;;;;;;;;;;;;;;27.11;100.00;99674.56;5075051;28;800;-60
2023/05/25 12:46:42;;;;;;;;;;;;;;;26.91;100.00;99670.75;5074700;28;858;-60
2023/05/25 12:49:27;;;;;;;;;;;;;;;26.76;100.00;99675.94;5074589;28;1894;-60
2023/05/25 12:51:54;;;;;;;;;;;;;;;26.32;100.00;99674.66;5074655;28;815;-61
2023/05/25 12:54:33;;;;;;;;;;;;;;;26.03;100.00;99673.88;5074613;28;827;-61
2023/05/25 12:57:04;;;;;;;;;;;;;;;26.04;100.00;99664.09;5074451;28;866;-61
2023/05/25 12:59:32;;;;;;;;;;;;;;;26.09;100.00;99660.50;5074558;28;962;-61
2023/05/25 13:01:59;;;;;;;;;;;;;;;25.99;100.00;99654.31;5074358;28;946;-61
2023/05/25 13:04:26;;;;;;;;;;;;;;;25.69;100.00;99654.00;5074363;28;1004;-62
2023/05/25 13:06:54;;;;;;;;;;;;;;;25.49;100.00;99659.84;5074634;28;811;-62
2023/05/25 13:09:26;;;;;;;;;;;;;;;25.33;100.00;99664.94;5074133;28;1894;-62
2023/05/25 13:11:54;;;;;;;;;;;;;;;25.15;100.00;99668.19;5074154;28;1217;-62
2023/05/25 13:14:21;;;;;;;;;;;;;;;25.32;100.00;99662.63;5074223;28;913;-61
2023/05/25 13:16:49;;;;;;;;;;;;;;;25.37;100.00;99673.16;5074183;28;879;-63
2023/05/25 13:19:16;;;;;;;;;;;;;;;25.34;100.00;99671.38;5074082;28;812;-62
2023/05/25 13:21:43;;;;;;;;;;;;;;;25.16;100.00;99662.03;5074372;28;842;-62
2023/05/25 13:24:10;;;;;;;;;;;;;;;25.17;100.00;99662.78;5073981;28;886;-63
2023/05/25 13:26:37;;;;;;;;;;;;;;;25.00;100.00;99649.34;5073927;28;950;-64
2023/05/25 13:29:04;;;;;;;;;;;;;;;24.85;100.00;99643.09;5073941;28;1913;-63
2023/05/25 13:31:31;;;;;;;;;;;;;;;24.94;100.00;99642.09;5074178;28;874;-63
2023/05/25 13:33:58;;;;;;;;;;;;;;;25.05;100.00;99642.94;5073731;28;827;-63
2023/05/25 13:36:25;;;;;;;;;;;;;;;25.01;100.00;99664.25;5073728;28;874;-62